sensor_id;sensor_type;location;lat;lon;timestamp;pressure;altitude;pressure_sealevel;temperature;humidity
5954;BME280;3002;42.642;24.812;2023-11-21T00:01:33;96231.06;;;10.09;77.38
5954;BME280;3002;42.642;24.812;2023-11-21T00:04:00;96243.22;;;10.26;77.68
5954;BME280;3002;42.642;24.812;2023-11-21T00:06:26;96243.63;;;10.33;76.14
5954;BME280;3002;42.642;24.812;2023-11-21T00:08:52;96258.22;;;10.59;76.03
5954;BME280;3002;42.642;24.812;2023-11-21T00:11:17;96249.16;;;10.55;76.59
5954;BME280;3002;42.642;24.812;2023-11-21T00:13:43;96247.50;;;10.59;77.68
5954;BME280;3002;42.642;24.812;2023-11-21T00:16:09;96222.91;;;10.38;78.20
5954;BME280;3002;42.642;24.812;2023-11-21T00:18:34;96244.28;;;10.43;75.76
5954;BME280;3002;42.642;24.812;2023-11-21T00:21:01;96254.47;;;10.60;74.96
5954;BME280;3002;42.642;24.812;2023-11-21T00:23:26;96244.28;;;10.43;74.48
5954;BME280;3002;42.642;24.812;2023-11-21T00:25:52;96249.41;;;10.21;75.85
5954;BME280;3002;42.642;24.812;2023-11-21T00:28:17;96246.09;;;10.29;75.38
5954;BME280;3002;42.642;24.812;2023-11-21T00:30:43;96248.69;;;10.34;74.15
5954;BME280;3002;42.642;24.812;2023-11-21T00:33:10;96215.78;;;10.10;73.70
5954;BME280;3002;42.642;24.812;2023-11-21T00:35:37;96233.84;;;10.42;73.56
5954;BME280;3002;42.642;24.812;2023-11-21T00:38:02;96207.78;;;10.29;73.06
5954;BME280;3002;42.642;24.812;2023-11-21T00:40:28;96247.97;;;10.29;74.34
5954;BME280;3002;42.642;24.812;2023-11-21T00:42:54;96244.25;;;10.25;74.83
5954;BME280;3002;42.642;24.812;2023-11-21T00:45:21;96258.13;;;10.51;73.99
5954;BME280;3002;42.642;24.812;2023-11-21T00:47:46;96257.88;;;10.47;73.38
5954;BME280;3002;42.642;24.812;2023-11-21T00:50:12;96248.47;;;10.50;73.42
5954;BME280;3002;42.642;24.812;2023-11-21T00:52:38;96252.66;;;10.37;77.69
5954;BME280;3002;42.642;24.812;2023-11-21T00:55:04;96224.31;;;10.12;76.53
5954;BME280;3002;42.642;24.812;2023-11-21T00:57:32;96261.03;;;9.92;79.12
5954;BME280;3002;42.642;24.812;2023-11-21T01:00:03;96255.44;;;9.89;80.57
5954;BME280;3002;42.642;24.812;2023-11-21T01:02:33;96225.28;;;9.59;80.73
5954;BME280;3002;42.642;24.812;2023-11-21T01:05:00;96247.78;;;9.58;81.25
5954;BME280;3002;42.642;24.812;2023-11-21T01:07:26;96240.03;;;9.57;81.73
5954;BME280;3002;42.642;24.812;2023-11-21T01:09:52;96251.53;;;9.57;81.44
5954;BME280;3002;42.642;24.812;2023-11-21T01:12:17;96236.53;;;9.08;85.84
5954;BME280;3002;42.642;24.812;2023-11-21T01:14:43;96246.19;;;9.04;87.25
5954;BME280;3002;42.642;24.812;2023-11-21T01:17:10;96230.63;;;9.11;85.29
5954;BME280;3002;42.642;24.812;2023-11-21T01:19:35;96232.81;;;9.04;86.27
5954;BME280;3002;42.642;24.812;2023-11-21T01:22:01;96219.44;;;9.04;86.70
5954;BME280;3002;42.642;24.812;2023-11-21T01:24:26;96244.91;;;9.02;89.18
5954;BME280;3002;42.642;24.812;2023-11-21T01:26:51;96236.63;;;8.98;88.66
5954;BME280;3002;42.642;24.812;2023-11-21T01:29:17;96225.25;;;9.11;86.25
5954;BME280;3002;42.642;24.812;2023-11-21T01:31:42;96198.91;;;8.76;87.02
5954;BME280;3002;42.642;24.812;2023-11-21T01:34:08;96238.22;;;8.99;88.03
5954;BME280;3002;42.642;24.812;2023-11-21T01:36:33;96205.28;;;8.75;88.65
5954;BME280;3002;42.642;24.812;2023-11-21T01:38:59;96246.38;;;8.89;89.66
5954;BME280;3002;42.642;24.812;2023-11-21T01:41:26;96229.66;;;9.02;87.41
5954;BME280;3002;42.642;24.812;2023-11-21T01:43:52;96243.09;;;9.21;88.47
5954;BME280;3002;42.642;24.812;2023-11-21T01:46:19;96229.81;;;9.11;89.52
5954;BME280;3002;42.642;24.812;2023-11-21T01:48:46;96235.97;;;9.11;91.56
5954;BME280;3002;42.642;24.812;2023-11-21T01:51:12;96240.94;;;9.23;91.35
5954;BME280;3002;42.642;24.812;2023-11-21T01:53:39;96234.63;;;9.38;89.37
5954;BME280;3002;42.642;24.812;2023-11-21T01:56:06;96224.22;;;9.36;87.55
5954;BME280;3002;42.642;24.812;2023-11-21T01:58:33;96218.13;;;9.07;90.09
5954;BME280;3002;42.642;24.812;2023-11-21T02:00:59;96202.09;;;9.02;88.75
5954;BME280;3002;42.642;24.812;2023-11-21T02:03:24;96226.88;;;9.13;89.14
5954;BME280;3002;42.642;24.812;2023-11-21T02:05:52;96232.34;;;9.26;88.71
5954;BME280;3002;42.642;24.812;2023-11-21T02:08:19;96234.69;;;9.33;87.54
5954;BME280;3002;42.642;24.812;2023-11-21T02:10:45;96220.34;;;9.48;86.45
5954;BME280;3002;42.642;24.812;2023-11-21T02:13:11;96232.69;;;9.44;85.86
5954;BME280;3002;42.642;24.812;2023-11-21T02:15:37;96230.22;;;9.47;85.03
5954;BME280;3002;42.642;24.812;2023-11-21T02:18:03;96214.41;;;9.51;85.52
5954;BME280;3002;42.642;24.812;2023-11-21T02:20:31;96226.34;;;9.58;85.50
5954;BME280;3002;42.642;24.812;2023-11-21T02:23:00;96230.31;;;9.18;87.40
5954;BME280;3002;42.642;24.812;2023-11-21T02:25:26;96224.97;;;9.42;86.00
5954;BME280;3002;42.642;24.812;2023-11-21T02:27:58;96209.88;;;8.98;88.80
5954;BME280;3002;42.642;24.812;2023-11-21T02:30:24;96234.28;;;9.21;88.36
5954;BME280;3002;42.642;24.812;2023-11-21T02:33:02;96228.72;;;8.88;90.59
5954;BME280;3002;42.642;24.812;2023-11-21T02:35:27;96218.19;;;8.97;88.47
5954;BME280;3002;42.642;24.812;2023-11-21T02:37:53;96229.06;;;9.05;88.93
5954;BME280;3002;42.642;24.812;2023-11-21T02:40:19;96238.34;;;8.89;89.25
5954;BME280;3002;42.642;24.812;2023-11-21T02:42:50;96218.38;;;9.05;87.26
5954;BME280;3002;42.642;24.812;2023-11-21T02:45:20;96230.69;;;9.06;87.39
5954;BME280;3002;42.642;24.812;2023-11-21T02:47:49;96224.44;;;8.58;89.50
5954;BME280;3002;42.642;24.812;2023-11-21T02:50:15;96215.88;;;8.56;89.72
5954;BME280;3002;42.642;24.812;2023-11-21T02:52:40;96212.84;;;8.97;86.11
5954;BME280;3002;42.642;24.812;2023-11-21T02:55:06;96222.38;;;9.08;85.11
5954;BME280;3002;42.642;24.812;2023-11-21T02:57:34;96239.34;;;9.22;84.40
5954;BME280;3002;42.642;24.812;2023-11-21T03:00:00;96226.31;;;8.87;86.51
5954;BME280;3002;42.642;24.812;2023-11-21T03:02:25;96225.19;;;8.93;85.15
5954;BME280;3002;42.642;24.812;2023-11-21T03:04:51;96224.72;;;8.85;85.75
5954;BME280;3002;42.642;24.812;2023-11-21T03:07:17;96246.66;;;9.11;84.84
5954;BME280;3002;42.642;24.812;2023-11-21T03:09:45;96235.47;;;9.33;83.68
5954;BME280;3002;42.642;24.812;2023-11-21T03:12:11;96221.03;;;9.05;83.49
5954;BME280;3002;42.642;24.812;2023-11-21T03:14:40;96222.94;;;9.05;82.86
5954;BME280;3002;42.642;24.812;2023-11-21T03:17:05;96211.84;;;9.17;82.32
5954;BME280;3002;42.642;24.812;2023-11-21T03:19:31;96236.59;;;9.03;83.35
5954;BME280;3002;42.642;24.812;2023-11-21T03:21:57;96224.97;;;8.89;85.23
5954;BME280;3002;42.642;24.812;2023-11-21T03:24:22;96194.13;;;8.68;84.87
5954;BME280;3002;42.642;24.812;2023-11-21T03:26:48;96222.66;;;9.06;83.20
5954;BME280;3002;42.642;24.812;2023-11-21T03:29:14;96188.91;;;8.81;84.52
5954;BME280;3002;42.642;24.812;2023-11-21T03:31:40;96245.19;;;9.00;85.78
5954;BME280;3002;42.642;24.812;2023-11-21T03:34:06;96197.53;;;8.44;86.59
5954;BME280;3002;42.642;24.812;2023-11-21T03:36:32;96214.44;;;8.69;85.92
5954;BME280;3002;42.642;24.812;2023-11-21T03:38:57;96247.19;;;8.84;88.96
5954;BME280;3002;42.642;24.812;2023-11-21T03:41:22;96251.47;;;8.85;87.74
5954;BME280;3002;42.642;24.812;2023-11-21T03:43:48;96236.63;;;8.69;88.12
5954;BME280;3002;42.642;24.812;2023-11-21T03:46:13;96231.47;;;8.44;91.45
5954;BME280;3002;42.642;24.812;2023-11-21T03:48:40;96220.56;;;8.40;90.54
5954;BME280;3002;42.642;24.812;2023-11-21T03:51:05;96234.47;;;8.71;88.63
5954;BME280;3002;42.642;24.812;2023-11-21T03:53:32;96216.53;;;8.43;90.19
5954;BME280;3002;42.642;24.812;2023-11-21T03:55:57;96236.94;;;8.63;88.68
5954;BME280;3002;42.642;24.812;2023-11-21T03:58:23;96190.94;;;8.37;88.04
5954;BME280;3002;42.642;24.812;2023-11-21T04:00:48;96237.47;;;8.65;89.01
5954;BME280;3002;42.642;24.812;2023-11-21T04:03:16;96219.44;;;8.46;88.76
5954;BME280;3002;42.642;24.812;2023-11-21T04:05:42;96247.06;;;8.71;87.04
5954;BME280;3002;42.642;24.812;2023-11-21T04:08:07;96243.16;;;8.58;88.36
5954;BME280;3002;42.642;24.812;2023-11-21T04:10:33;96231.88;;;8.61;87.29
5954;BME280;3002;42.642;24.812;2023-11-21T04:12:58;96238.00;;;8.67;84.92
5954;BME280;3002;42.642;24.812;2023-11-21T04:15:25;96244.69;;;8.93;84.19
5954;BME280;3002;42.642;24.812;2023-11-21T04:17:51;96241.94;;;9.03;84.43
5954;BME280;3002;42.642;24.812;2023-11-21T04:20:16;96251.59;;;8.70;88.69
5954;BME280;3002;42.642;24.812;2023-11-21T04:22:44;96252.03;;;8.82;86.85
5954;BME280;3002;42.642;24.812;2023-11-21T04:25:10;96207.22;;;8.69;86.24
5954;BME280;3002;42.642;24.812;2023-11-21T04:27:37;96242.50;;;8.71;86.21
5954;BME280;3002;42.642;24.812;2023-11-21T04:30:34;96240.31;;;9.07;84.41
5954;BME280;3002;42.642;24.812;2023-11-21T04:33:00;96231.53;;;8.73;87.39
5954;BME280;3002;42.642;24.812;2023-11-21T04:35:25;96236.47;;;8.55;89.45
5954;BME280;3002;42.642;24.812;2023-11-21T04:37:51;96245.53;;;8.60;89.40
5954;BME280;3002;42.642;24.812;2023-11-21T04:40:17;96257.75;;;8.71;89.57
5954;BME280;3002;42.642;24.812;2023-11-21T04:42:42;96235.38;;;8.56;89.32
5954;BME280;3002;42.642;24.812;2023-11-21T04:45:08;96259.94;;;8.64;90.88
5954;BME280;3002;42.642;24.812;2023-11-21T04:47:35;96274.81;;;8.75;90.30
5954;BME280;3002;42.642;24.812;2023-11-21T04:50:01;96256.13;;;8.36;92.02
5954;BME280;3002;42.642;24.812;2023-11-21T04:52:27;96267.91;;;8.29;93.24
5954;BME280;3002;42.642;24.812;2023-11-21T04:54:52;96275.44;;;8.22;93.83
5954;BME280;3002;42.642;24.812;2023-11-21T04:57:20;96241.56;;;8.13;93.00
5954;BME280;3002;42.642;24.812;2023-11-21T04:59:45;96259.25;;;8.48;91.36
5954;BME280;3002;42.642;24.812;2023-11-21T05:02:11;96257.97;;;8.35;92.21
5954;BME280;3002;42.642;24.812;2023-11-21T05:04:37;96262.59;;;8.24;94.89
5954;BME280;3002;42.642;24.812;2023-11-21T05:07:03;96258.09;;;8.59;93.15
5954;BME280;3002;42.642;24.812;2023-11-21T05:09:28;96256.22;;;8.60;92.83
5954;BME280;3002;42.642;24.812;2023-11-21T05:11:57;96264.63;;;8.43;94.94
5954;BME280;3002;42.642;24.812;2023-11-21T05:14:22;96260.59;;;8.45;94.74
5954;BME280;3002;42.642;24.812;2023-11-21T05:16:48;96263.59;;;8.73;91.40
5954;BME280;3002;42.642;24.812;2023-11-21T05:19:13;96245.00;;;8.18;94.17
5954;BME280;3002;42.642;24.812;2023-11-21T05:21:39;96253.19;;;8.71;91.87
5954;BME280;3002;42.642;24.812;2023-11-21T05:24:05;96251.75;;;8.84;91.06
5954;BME280;3002;42.642;24.812;2023-11-21T05:26:30;96260.13;;;9.06;88.90
5954;BME280;3002;42.642;24.812;2023-11-21T05:28:56;96264.78;;;9.20;88.30
5954;BME280;3002;42.642;24.812;2023-11-21T05:31:22;96250.03;;;9.22;87.35
5954;BME280;3002;42.642;24.812;2023-11-21T05:33:47;96247.13;;;8.95;92.74
5954;BME280;3002;42.642;24.812;2023-11-21T05:36:12;96237.84;;;9.11;91.10
5954;BME280;3002;42.642;24.812;2023-11-21T05:38:38;96253.03;;;9.45;88.52
5954;BME280;3002;42.642;24.812;2023-11-21T05:41:04;96245.69;;;9.31;89.65
5954;BME280;3002;42.642;24.812;2023-11-21T05:43:30;96245.47;;;9.23;89.48
5954;BME280;3002;42.642;24.812;2023-11-21T05:45:56;96248.84;;;9.57;88.12
5954;BME280;3002;42.642;24.812;2023-11-21T05:48:22;96245.56;;;9.65;87.66
5954;BME280;3002;42.642;24.812;2023-11-21T05:50:48;96249.78;;;9.72;86.45
5954;BME280;3002;42.642;24.812;2023-11-21T05:53:15;96255.28;;;9.08;94.19
5954;BME280;3002;42.642;24.812;2023-11-21T05:55:41;96242.81;;;9.47;90.04
5954;BME280;3002;42.642;24.812;2023-11-21T05:58:07;96237.38;;;9.76;88.28
5954;BME280;3002;42.642;24.812;2023-11-21T06:00:45;96264.69;;;10.21;85.61
5954;BME280;3002;42.642;24.812;2023-11-21T06:03:10;96279.84;;;10.06;84.75
5954;BME280;3002;42.642;24.812;2023-11-21T06:05:36;96271.34;;;10.42;82.33
5954;BME280;3002;42.642;24.812;2023-11-21T06:08:01;96268.03;;;10.69;78.98
5954;BME280;3002;42.642;24.812;2023-11-21T06:10:27;96273.53;;;10.40;78.78
5954;BME280;3002;42.642;24.812;2023-11-21T06:12:53;96266.16;;;10.51;77.82
5954;BME280;3002;42.642;24.812;2023-11-21T06:15:19;96288.28;;;10.94;76.19
5954;BME280;3002;42.642;24.812;2023-11-21T06:17:46;96262.81;;;10.91;74.88
5954;BME280;3002;42.642;24.812;2023-11-21T06:20:15;96270.69;;;11.34;72.59
5954;BME280;3002;42.642;24.812;2023-11-21T06:22:45;96297.84;;;11.46;72.19
5954;BME280;3002;42.642;24.812;2023-11-21T06:25:12;96278.03;;;11.56;70.78
5954;BME280;3002;42.642;24.812;2023-11-21T06:27:44;96266.31;;;11.93;68.46
5954;BME280;3002;42.642;24.812;2023-11-21T06:30:20;96291.75;;;12.23;67.38
5954;BME280;3002;42.642;24.812;2023-11-21T06:32:46;96303.19;;;13.24;63.63
5954;BME280;3002;42.642;24.812;2023-11-21T06:35:11;96287.34;;;13.45;62.27
5954;BME280;3002;42.642;24.812;2023-11-21T06:37:38;96295.59;;;13.97;61.32
5954;BME280;3002;42.642;24.812;2023-11-21T06:40:04;96307.66;;;13.90;60.87
5954;BME280;3002;42.642;24.812;2023-11-21T06:42:30;96316.34;;;14.44;59.55
5954;BME280;3002;42.642;24.812;2023-11-21T06:44:56;96275.41;;;14.34;59.42
5954;BME280;3002;42.642;24.812;2023-11-21T06:47:25;96283.56;;;14.60;58.91
5954;BME280;3002;42.642;24.812;2023-11-21T06:49:52;96297.84;;;14.86;58.53
5954;BME280;3002;42.642;24.812;2023-11-21T06:52:18;96273.81;;;15.11;57.42
5954;BME280;3002;42.642;24.812;2023-11-21T06:54:44;96291.25;;;15.39;56.65
5954;BME280;3002;42.642;24.812;2023-11-21T06:57:10;96278.63;;;15.61;56.07
5954;BME280;3002;42.642;24.812;2023-11-21T06:59:36;96270.25;;;16.42;54.45
5954;BME280;3002;42.642;24.812;2023-11-21T07:02:01;96272.47;;;16.70;52.66
5954;BME280;3002;42.642;24.812;2023-11-21T07:04:27;96286.75;;;17.45;52.02
5954;BME280;3002;42.642;24.812;2023-11-21T07:06:53;96269.78;;;18.30;49.71
5954;BME280;3002;42.642;24.812;2023-11-21T07:09:19;96275.44;;;18.90;48.38
5954;BME280;3002;42.642;24.812;2023-11-21T07:11:50;96253.91;;;19.41;47.37
5954;BME280;3002;42.642;24.812;2023-11-21T07:14:16;96253.97;;;20.39;46.25
5954;BME280;3002;42.642;24.812;2023-11-21T07:16:42;96282.94;;;21.41;41.77
5954;BME280;3002;42.642;24.812;2023-11-21T07:19:08;96271.38;;;21.28;42.16
5954;BME280;3002;42.642;24.812;2023-11-21T07:21:33;96268.97;;;21.03;42.17
5954;BME280;3002;42.642;24.812;2023-11-21T07:24:03;96277.84;;;19.95;44.66
5954;BME280;3002;42.642;24.812;2023-11-21T07:26:30;96276.69;;;19.20;45.25
5954;BME280;3002;42.642;24.812;2023-11-21T07:28:56;96286.91;;;19.11;46.08
5954;BME280;3002;42.642;24.812;2023-11-21T07:31:22;96293.28;;;19.91;43.99
5954;BME280;3002;42.642;24.812;2023-11-21T07:33:48;96296.69;;;20.35;43.77
5954;BME280;3002;42.642;24.812;2023-11-21T07:36:14;96270.97;;;20.68;41.68
5954;BME280;3002;42.642;24.812;2023-11-21T07:38:40;96277.34;;;19.02;44.42
5954;BME280;3002;42.642;24.812;2023-11-21T07:41:06;96278.75;;;19.55;44.95
5954;BME280;3002;42.642;24.812;2023-11-21T07:43:34;96293.97;;;19.72;44.19
5954;BME280;3002;42.642;24.812;2023-11-21T07:46:04;96281.53;;;19.87;44.42
5954;BME280;3002;42.642;24.812;2023-11-21T07:48:30;96277.50;;;19.81;44.98
5954;BME280;3002;42.642;24.812;2023-11-21T07:50:57;96277.16;;;19.54;45.30
5954;BME280;3002;42.642;24.812;2023-11-21T07:53:24;96283.00;;;20.16;44.29
5954;BME280;3002;42.642;24.812;2023-11-21T07:55:51;96288.63;;;20.07;43.90
5954;BME280;3002;42.642;24.812;2023-11-21T07:58:17;96286.44;;;20.13;44.31
5954;BME280;3002;42.642;24.812;2023-11-21T08:00:43;96290.91;;;21.10;42.74
5954;BME280;3002;42.642;24.812;2023-11-21T08:03:09;96278.78;;;21.47;41.30
5954;BME280;3002;42.642;24.812;2023-11-21T08:05:34;96273.72;;;21.06;41.26
5954;BME280;3002;42.642;24.812;2023-11-21T08:08:00;96268.47;;;21.36;40.94
5954;BME280;3002;42.642;24.812;2023-11-21T08:10:26;96279.84;;;22.07;40.22
5954;BME280;3002;42.642;24.812;2023-11-21T08:12:52;96266.06;;;22.23;39.74
5954;BME280;3002;42.642;24.812;2023-11-21T08:15:19;96267.16;;;22.18;39.38
5954;BME280;3002;42.642;24.812;2023-11-21T08:17:45;96268.09;;;22.30;39.89
5954;BME280;3002;42.642;24.812;2023-11-21T08:20:11;96265.00;;;22.58;38.14
5954;BME280;3002;42.642;24.812;2023-11-21T08:22:37;96264.28;;;22.34;39.28
5954;BME280;3002;42.642;24.812;2023-11-21T08:25:03;96254.94;;;22.65;39.34
5954;BME280;3002;42.642;24.812;2023-11-21T08:27:31;96256.22;;;22.45;39.54
5954;BME280;3002;42.642;24.812;2023-11-21T08:29:56;96255.38;;;22.41;39.86
5954;BME280;3002;42.642;24.812;2023-11-21T08:32:22;96259.53;;;23.18;38.18
5954;BME280;3002;42.642;24.812;2023-11-21T08:34:48;96261.28;;;24.18;36.83
5954;BME280;3002;42.642;24.812;2023-11-21T08:37:16;96259.00;;;23.80;36.54
5954;BME280;3002;42.642;24.812;2023-11-21T08:39:44;96247.63;;;24.25;35.98
5954;BME280;3002;42.642;24.812;2023-11-21T08:42:10;96249.59;;;24.28;36.17
5954;BME280;3002;42.642;24.812;2023-11-21T08:44:35;96260.53;;;24.25;35.29
5954;BME280;3002;42.642;24.812;2023-11-21T08:47:01;96259.13;;;23.57;36.73
5954;BME280;3002;42.642;24.812;2023-11-21T08:49:27;96249.16;;;24.19;36.04
5954;BME280;3002;42.642;24.812;2023-11-21T08:51:54;96239.91;;;22.22;37.92
5954;BME280;3002;42.642;24.812;2023-11-21T08:54:21;96243.63;;;22.67;37.13
5954;BME280;3002;42.642;24.812;2023-11-21T08:56:46;96243.81;;;24.37;35.33
5954;BME280;3002;42.642;24.812;2023-11-21T08:59:13;96234.41;;;24.38;34.71
5954;BME280;3002;42.642;24.812;2023-11-21T09:01:40;96230.03;;;24.30;35.25
5954;BME280;3002;42.642;24.812;2023-11-21T09:04:06;96214.78;;;25.05;34.80
5954;BME280;3002;42.642;24.812;2023-11-21T09:06:32;96199.94;;;25.35;34.83
5954;BME280;3002;42.642;24.812;2023-11-21T09:08:57;96190.53;;;25.32;33.09
5954;BME280;3002;42.642;24.812;2023-11-21T09:11:23;96202.34;;;25.72;32.19
5954;BME280;3002;42.642;24.812;2023-11-21T09:13:50;96147.31;;;21.64;37.62
5954;BME280;3002;42.642;24.812;2023-11-21T09:16:17;96198.78;;;23.42;35.86
5954;BME280;3002;42.642;24.812;2023-11-21T09:18:42;96185.09;;;23.83;34.32
5954;BME280;3002;42.642;24.812;2023-11-21T09:21:08;96189.97;;;23.60;35.39
5954;BME280;3002;42.642;24.812;2023-11-21T09:23:35;96186.94;;;23.28;35.25
5954;BME280;3002;42.642;24.812;2023-11-21T09:26:00;96175.44;;;23.11;35.14
5954;BME280;3002;42.642;24.812;2023-11-21T09:28:26;96166.00;;;23.09;35.34
5954;BME280;3002;42.642;24.812;2023-11-21T09:30:53;96165.28;;;24.00;34.36
5954;BME280;3002;42.642;24.812;2023-11-21T09:33:19;96171.97;;;23.59;34.61
5954;BME280;3002;42.642;24.812;2023-11-21T09:35:45;96161.28;;;24.53;33.25
5954;BME280;3002;42.642;24.812;2023-11-21T09:38:11;96144.97;;;24.09;33.49
5954;BME280;3002;42.642;24.812;2023-11-21T09:40:37;96142.84;;;24.50;33.25
5954;BME280;3002;42.642;24.812;2023-11-21T09:43:09;96143.06;;;25.18;32.17
5954;BME280;3002;42.642;24.812;2023-11-21T09:49:09;96157.47;;;24.79;33.01
5954;BME280;3002;42.642;24.812;2023-11-21T09:51:41;96152.44;;;24.12;34.40
5954;BME280;3002;42.642;24.812;2023-11-21T09:54:10;96160.88;;;23.92;34.40
5954;BME280;3002;42.642;24.812;2023-11-21T09:56:36;96152.88;;;23.66;34.52
5954;BME280;3002;42.642;24.812;2023-11-21T09:59:03;96145.00;;;24.16;34.43
5954;BME280;3002;42.642;24.812;2023-11-21T10:01:32;96149.59;;;23.49;34.47
5954;BME280;3002;42.642;24.812;2023-11-21T10:03:58;96142.19;;;24.01;33.70
5954;BME280;3002;42.642;24.812;2023-11-21T10:06:25;96119.19;;;23.58;33.75
5954;BME280;3002;42.642;24.812;2023-11-21T10:08:53;96145.56;;;23.81;33.58
5954;BME280;3002;42.642;24.812;2023-11-21T10:11:19;96136.63;;;23.87;33.65
5954;BME280;3002;42.642;24.812;2023-11-21T10:13:46;96121.13;;;23.61;33.61
5954;BME280;3002;42.642;24.812;2023-11-21T10:16:15;96118.81;;;24.18;33.48
5954;BME280;3002;42.642;24.812;2023-11-21T10:18:47;96099.53;;;24.00;33.22
5954;BME280;3002;42.642;24.812;2023-11-21T10:21:14;96116.66;;;24.60;32.03
5954;BME280;3002;42.642;24.812;2023-11-21T10:23:40;96120.59;;;23.93;32.97
5954;BME280;3002;42.642;24.812;2023-11-21T10:26:06;96122.03;;;23.72;32.84
5954;BME280;3002;42.642;24.812;2023-11-21T10:28:37;96092.38;;;24.62;31.74
5954;BME280;3002;42.642;24.812;2023-11-21T10:31:06;96094.00;;;23.97;33.18
5954;BME280;3002;42.642;24.812;2023-11-21T10:33:32;96117.72;;;22.49;34.26
5954;BME280;3002;42.642;24.812;2023-11-21T10:35:58;96096.31;;;23.36;32.98
5954;BME280;3002;42.642;24.812;2023-11-21T10:38:24;96099.88;;;23.99;33.18
5954;BME280;3002;42.642;24.812;2023-11-21T10:40:52;96085.03;;;23.41;33.97
5954;BME280;3002;42.642;24.812;2023-11-21T10:43:20;96092.84;;;23.39;33.35
5954;BME280;3002;42.642;24.812;2023-11-21T10:45:49;96084.53;;;22.51;34.89
5954;BME280;3002;42.642;24.812;2023-11-21T10:48:15;96090.94;;;22.65;35.07
5954;BME280;3002;42.642;24.812;2023-11-21T10:50:43;96074.50;;;22.99;34.30
5954;BME280;3002;42.642;24.812;2023-11-21T10:53:09;96073.69;;;23.43;34.05
5954;BME280;3002;42.642;24.812;2023-11-21T10:55:37;96066.53;;;23.79;34.08
5954;BME280;3002;42.642;24.812;2023-11-21T10:58:03;96055.25;;;23.91;34.25
5954;BME280;3002;42.642;24.812;2023-11-21T11:00:35;96061.59;;;20.50;38.21
5954;BME280;3002;42.642;24.812;2023-11-21T11:03:03;96058.53;;;20.52;39.31
5954;BME280;3002;42.642;24.812;2023-11-21T11:05:29;96045.00;;;21.77;37.48
5954;BME280;3002;42.642;24.812;2023-11-21T11:08:04;96048.38;;;21.18;38.70
5954;BME280;3002;42.642;24.812;2023-11-21T11:10:30;96040.44;;;21.32;37.91
5954;BME280;3002;42.642;24.812;2023-11-21T11:12:56;96056.28;;;20.38;39.80
5954;BME280;3002;42.642;24.812;2023-11-21T11:15:25;96051.28;;;20.21;40.25
5954;BME280;3002;42.642;24.812;2023-11-21T11:17:51;96030.00;;;21.37;39.31
5954;BME280;3002;42.642;24.812;2023-11-21T11:20:17;96041.41;;;22.33;38.04
5954;BME280;3002;42.642;24.812;2023-11-21T11:22:57;96037.97;;;19.77;42.68
5954;BME280;3002;42.642;24.812;2023-11-21T11:25:30;96020.88;;;20.15;41.71
5954;BME280;3002;42.642;24.812;2023-11-21T11:28:17;95983.25;;;21.39;39.23
5954;BME280;3002;42.642;24.812;2023-11-21T11:31:08;95990.63;;;21.12;38.81
5954;BME280;3002;42.642;24.812;2023-11-21T11:33:56;96000.91;;;21.22;39.28
5954;BME280;3002;42.642;24.812;2023-11-21T11:36:59;96014.16;;;20.74;40.18
5954;BME280;3002;42.642;24.812;2023-11-21T11:39:38;96010.28;;;20.33;41.60
5954;BME280;3002;42.642;24.812;2023-11-21T11:42:08;96017.13;;;19.65;41.86
5954;BME280;3002;42.642;24.812;2023-11-21T11:47:30;96017.03;;;18.95;43.40
5954;BME280;3002;42.642;24.812;2023-11-21T11:52:43;96008.81;;;18.91;44.15
5954;BME280;3002;42.642;24.812;2023-11-21T11:55:11;96004.75;;;19.01;44.03
5954;BME280;3002;42.642;24.812;2023-11-21T11:57:41;96014.50;;;18.86;44.17
5954;BME280;3002;42.642;24.812;2023-11-21T12:00:38;95997.31;;;18.82;44.21
5954;BME280;3002;42.642;24.812;2023-11-21T12:03:07;95995.00;;;18.53;44.51
5954;BME280;3002;42.642;24.812;2023-11-21T12:05:34;95980.00;;;19.22;44.78
5954;BME280;3002;42.642;24.812;2023-11-21T12:08:11;95968.50;;;17.74;45.95
5954;BME280;3002;42.642;24.812;2023-11-21T12:10:38;95981.38;;;18.96;44.71
5954;BME280;3002;42.642;24.812;2023-11-21T12:13:06;95988.84;;;19.35;43.79
5954;BME280;3002;42.642;24.812;2023-11-21T12:15:34;95989.72;;;19.74;43.60
5954;BME280;3002;42.642;24.812;2023-11-21T12:18:00;95984.34;;;19.77;43.00
5954;BME280;3002;42.642;24.812;2023-11-21T12:20:27;95992.22;;;20.64;41.68
5954;BME280;3002;42.642;24.812;2023-11-21T12:22:54;95991.66;;;21.04;40.76
5954;BME280;3002;42.642;24.812;2023-11-21T12:25:24;95973.97;;;20.68;40.98
5954;BME280;3002;42.642;24.812;2023-11-21T12:27:51;95983.84;;;19.02;45.52
5954;BME280;3002;42.642;24.812;2023-11-21T12:33:35;95992.28;;;19.32;43.73
5954;BME280;3002;42.642;24.812;2023-11-21T12:36:00;95979.25;;;19.41;44.45
5954;BME280;3002;42.642;24.812;2023-11-21T12:38:34;95982.59;;;19.15;44.22
5954;BME280;3002;42.642;24.812;2023-11-21T12:41:00;95977.69;;;19.40;45.62
5954;BME280;3002;42.642;24.812;2023-11-21T12:43:26;95973.38;;;19.19;44.64
5954;BME280;3002;42.642;24.812;2023-11-21T12:46:04;95960.03;;;18.04;46.88
5954;BME280;3002;42.642;24.812;2023-11-21T12:48:31;95940.63;;;18.65;45.54
5954;BME280;3002;42.642;24.812;2023-11-21T12:50:57;95914.59;;;18.16;46.26
5954;BME280;3002;42.642;24.812;2023-11-21T12:53:25;95944.88;;;18.78;45.98
5954;BME280;3002;42.642;24.812;2023-11-21T12:55:51;95924.94;;;18.11;47.08
5954;BME280;3002;42.642;24.812;2023-11-21T12:58:17;95914.69;;;17.88;48.05
5954;BME280;3002;42.642;24.812;2023-11-21T13:00:47;95932.66;;;17.81;48.79
5954;BME280;3002;42.642;24.812;2023-11-21T13:03:15;95890.94;;;17.85;47.89
5954;BME280;3002;42.642;24.812;2023-11-21T13:05:49;95931.97;;;17.16;49.44
5954;BME280;3002;42.642;24.812;2023-11-21T13:08:20;95940.84;;;17.97;48.86
5954;BME280;3002;42.642;24.812;2023-11-21T13:10:49;95930.41;;;17.43;49.30
5954;BME280;3002;42.642;24.812;2023-11-21T13:13:15;95928.91;;;17.57;52.48
5954;BME280;3002;42.642;24.812;2023-11-21T13:16:04;95960.06;;;17.23;50.24
5954;BME280;3002;42.642;24.812;2023-11-21T13:18:29;95924.53;;;17.00;51.18
5954;BME280;3002;42.642;24.812;2023-11-21T13:21:02;95937.16;;;16.47;52.04
5954;BME280;3002;42.642;24.812;2023-11-21T13:23:34;95950.63;;;16.80;52.14
5954;BME280;3002;42.642;24.812;2023-11-21T13:26:01;95960.44;;;16.85;52.44
5954;BME280;3002;42.642;24.812;2023-11-21T13:28:29;95951.47;;;17.33;50.69